Tarim, Yemen
Current Conditions -  °F | °C
As of 2:00 PM on Friday 28 Nov 2014 (Local Time) from OESH Reporting Station
Clear Clear  
Wind Chill: 90°   Ceiling: Unl
Heat Index: 90°   Visibility: 6mi
Dew Point: 52°   Wind: 7mph
Humidity: 27%   Direction: 150°SSE
Pressure: 29.91"   Gusts: NA
Location:  16.06°N, 49°E
Report Text: OESH 281100Z 15006KT CAVOK 32/11 Q1013 NOSIG
Loading
Personal Weather Stations






























Interactive Weather Map New forecast layout! Learn more

10-Day Weather Forecast

Advertisements
Track Severe Weather on mobile